sensor_id;sensor_type;location;lat;lon;timestamp;P1;durP1;ratioP1;P2;durP2;ratioP2
46363;SDS011;32071;49.036;9.344;2023-04-07T00:01:19;11.57;;;7.50;;
46363;SDS011;32071;49.036;9.344;2023-04-07T00:03:45;13.87;;;8.30;;
46363;SDS011;32071;49.036;9.344;2023-04-07T00:06:11;13.80;;;9.10;;
46363;SDS011;32071;49.036;9.344;2023-04-07T00:08:37;14.50;;;9.23;;
46363;SDS011;32071;49.036;9.344;2023-04-07T00:11:03;13.80;;;8.83;;
46363;SDS011;32071;49.036;9.344;2023-04-07T00:13:29;14.40;;;9.10;;
46363;SDS011;32071;49.036;9.344;2023-04-07T00:15:54;16.00;;;8.60;;
46363;SDS011;32071;49.036;9.344;2023-04-07T00:18:20;17.47;;;8.90;;
46363;SDS011;32071;49.036;9.344;2023-04-07T00:20:45;15.13;;;8.80;;
46363;SDS011;32071;49.036;9.344;2023-04-07T00:23:11;14.97;;;9.03;;
46363;SDS011;32071;49.036;9.344;2023-04-07T00:25:37;13.07;;;9.10;;
46363;SDS011;32071;49.036;9.344;2023-04-07T00:28:02;15.27;;;9.90;;
46363;SDS011;32071;49.036;9.344;2023-04-07T00:30:28;16.57;;;9.53;;
46363;SDS011;32071;49.036;9.344;2023-04-07T00:32:53;14.10;;;9.37;;
46363;SDS011;32071;49.036;9.344;2023-04-07T00:35:19;15.00;;;9.53;;
46363;SDS011;32071;49.036;9.344;2023-04-07T00:37:45;15.43;;;9.23;;
46363;SDS011;32071;49.036;9.344;2023-04-07T00:40:10;16.53;;;10.17;;
46363;SDS011;32071;49.036;9.344;2023-04-07T00:42:36;13.20;;;8.60;;
46363;SDS011;32071;49.036;9.344;2023-04-07T00:45:02;15.17;;;8.70;;
46363;SDS011;32071;49.036;9.344;2023-04-07T00:47:28;18.47;;;9.60;;
46363;SDS011;32071;49.036;9.344;2023-04-07T00:49:53;16.40;;;8.80;;
46363;SDS011;32071;49.036;9.344;2023-04-07T00:52:19;16.90;;;9.90;;
46363;SDS011;32071;49.036;9.344;2023-04-07T00:54:52;17.37;;;9.67;;
46363;SDS011;32071;49.036;9.344;2023-04-07T00:57:21;14.73;;;9.10;;
46363;SDS011;32071;49.036;9.344;2023-04-07T00:59:47;16.27;;;9.03;;
46363;SDS011;32071;49.036;9.344;2023-04-07T01:02:17;13.63;;;8.80;;
46363;SDS011;32071;49.036;9.344;2023-04-07T01:05:16;18.23;;;9.70;;
46363;SDS011;32071;49.036;9.344;2023-04-07T01:10:50;13.87;;;8.90;;
46363;SDS011;32071;49.036;9.344;2023-04-07T01:13:21;16.73;;;7.70;;
46363;SDS011;32071;49.036;9.344;2023-04-07T01:15:52;13.30;;;8.50;;
46363;SDS011;32071;49.036;9.344;2023-04-07T01:18:21;14.33;;;9.13;;
46363;SDS011;32071;49.036;9.344;2023-04-07T01:20:51;10.57;;;7.60;;
46363;SDS011;32071;49.036;9.344;2023-04-07T01:23:30;15.50;;;8.60;;
46363;SDS011;32071;49.036;9.344;2023-04-07T01:26:23;13.50;;;8.37;;
46363;SDS011;32071;49.036;9.344;2023-04-07T01:32:06;10.30;;;6.97;;
46363;SDS011;32071;49.036;9.344;2023-04-07T01:34:35;14.27;;;7.50;;
46363;SDS011;32071;49.036;9.344;2023-04-07T01:37:02;11.73;;;7.57;;
46363;SDS011;32071;49.036;9.344;2023-04-07T01:39:29;13.77;;;7.17;;
46363;SDS011;32071;49.036;9.344;2023-04-07T01:41:54;13.33;;;7.60;;
46363;SDS011;32071;49.036;9.344;2023-04-07T01:44:21;11.20;;;7.00;;
46363;SDS011;32071;49.036;9.344;2023-04-07T01:46:49;13.40;;;8.33;;
46363;SDS011;32071;49.036;9.344;2023-04-07T01:49:15;13.67;;;7.40;;
46363;SDS011;32071;49.036;9.344;2023-04-07T01:51:41;9.53;;;6.50;;
46363;SDS011;32071;49.036;9.344;2023-04-07T01:54:08;13.10;;;6.77;;
46363;SDS011;32071;49.036;9.344;2023-04-07T01:56:34;13.80;;;7.70;;
46363;SDS011;32071;49.036;9.344;2023-04-07T01:58:59;13.00;;;7.10;;
46363;SDS011;32071;49.036;9.344;2023-04-07T02:01:25;11.37;;;7.97;;
46363;SDS011;32071;49.036;9.344;2023-04-07T02:06:41;9.53;;;6.80;;
46363;SDS011;32071;49.036;9.344;2023-04-07T02:09:14;9.33;;;7.20;;
46363;SDS011;32071;49.036;9.344;2023-04-07T02:11:42;11.50;;;6.80;;
46363;SDS011;32071;49.036;9.344;2023-04-07T02:14:10;10.40;;;6.50;;
46363;SDS011;32071;49.036;9.344;2023-04-07T02:16:36;10.27;;;6.30;;
46363;SDS011;32071;49.036;9.344;2023-04-07T02:19:03;11.97;;;7.17;;
46363;SDS011;32071;49.036;9.344;2023-04-07T02:21:29;10.07;;;6.67;;
46363;SDS011;32071;49.036;9.344;2023-04-07T02:24:01;10.77;;;6.90;;
46363;SDS011;32071;49.036;9.344;2023-04-07T02:26:34;10.37;;;6.73;;
46363;SDS011;32071;49.036;9.344;2023-04-07T02:29:00;13.07;;;7.10;;
46363;SDS011;32071;49.036;9.344;2023-04-07T02:31:29;11.70;;;7.67;;
46363;SDS011;32071;49.036;9.344;2023-04-07T02:33:55;12.13;;;7.30;;
46363;SDS011;32071;49.036;9.344;2023-04-07T02:36:21;13.70;;;7.17;;
46363;SDS011;32071;49.036;9.344;2023-04-07T02:38:46;14.57;;;7.10;;
46363;SDS011;32071;49.036;9.344;2023-04-07T02:41:12;14.53;;;7.50;;
46363;SDS011;32071;49.036;9.344;2023-04-07T02:43:38;12.80;;;7.23;;
46363;SDS011;32071;49.036;9.344;2023-04-07T02:46:03;11.70;;;6.33;;
46363;SDS011;32071;49.036;9.344;2023-04-07T02:48:29;12.47;;;7.70;;
46363;SDS011;32071;49.036;9.344;2023-04-07T02:50:55;9.83;;;6.80;;
46363;SDS011;32071;49.036;9.344;2023-04-07T02:53:20;13.63;;;6.87;;
46363;SDS011;32071;49.036;9.344;2023-04-07T02:55:46;11.83;;;7.40;;
46363;SDS011;32071;49.036;9.344;2023-04-07T02:58:11;12.50;;;6.53;;
46363;SDS011;32071;49.036;9.344;2023-04-07T03:00:37;11.53;;;6.70;;
46363;SDS011;32071;49.036;9.344;2023-04-07T03:03:02;14.60;;;7.00;;
46363;SDS011;32071;49.036;9.344;2023-04-07T03:05:28;14.27;;;7.90;;
46363;SDS011;32071;49.036;9.344;2023-04-07T03:07:53;15.07;;;6.80;;
46363;SDS011;32071;49.036;9.344;2023-04-07T03:10:19;14.17;;;7.63;;
46363;SDS011;32071;49.036;9.344;2023-04-07T03:12:44;12.00;;;7.50;;
46363;SDS011;32071;49.036;9.344;2023-04-07T03:15:10;11.40;;;7.00;;
46363;SDS011;32071;49.036;9.344;2023-04-07T03:17:36;13.13;;;7.27;;
46363;SDS011;32071;49.036;9.344;2023-04-07T03:20:01;13.43;;;8.10;;
46363;SDS011;32071;49.036;9.344;2023-04-07T03:22:27;15.63;;;7.47;;
46363;SDS011;32071;49.036;9.344;2023-04-07T03:24:53;13.17;;;7.93;;
46363;SDS011;32071;49.036;9.344;2023-04-07T03:27:18;10.77;;;6.77;;
46363;SDS011;32071;49.036;9.344;2023-04-07T03:29:44;12.20;;;6.97;;
46363;SDS011;32071;49.036;9.344;2023-04-07T03:32:10;12.20;;;8.27;;
46363;SDS011;32071;49.036;9.344;2023-04-07T03:34:36;12.73;;;7.93;;
46363;SDS011;32071;49.036;9.344;2023-04-07T03:37:02;12.03;;;7.77;;
46363;SDS011;32071;49.036;9.344;2023-04-07T03:39:27;12.50;;;7.27;;
46363;SDS011;32071;49.036;9.344;2023-04-07T03:41:53;15.03;;;8.43;;
46363;SDS011;32071;49.036;9.344;2023-04-07T03:44:18;12.90;;;7.77;;
46363;SDS011;32071;49.036;9.344;2023-04-07T03:46:44;14.47;;;7.43;;
46363;SDS011;32071;49.036;9.344;2023-04-07T03:49:11;14.90;;;8.07;;
46363;SDS011;32071;49.036;9.344;2023-04-07T03:51:36;12.10;;;7.73;;
46363;SDS011;32071;49.036;9.344;2023-04-07T03:54:02;13.20;;;7.53;;
46363;SDS011;32071;49.036;9.344;2023-04-07T03:56:27;14.70;;;8.20;;
46363;SDS011;32071;49.036;9.344;2023-04-07T03:58:53;13.23;;;7.97;;
46363;SDS011;32071;49.036;9.344;2023-04-07T04:01:19;12.57;;;7.70;;
46363;SDS011;32071;49.036;9.344;2023-04-07T04:03:45;12.77;;;7.80;;
46363;SDS011;32071;49.036;9.344;2023-04-07T04:06:11;14.00;;;8.10;;
46363;SDS011;32071;49.036;9.344;2023-04-07T04:08:36;14.93;;;7.80;;
46363;SDS011;32071;49.036;9.344;2023-04-07T04:11:02;13.00;;;7.67;;
46363;SDS011;32071;49.036;9.344;2023-04-07T04:13:27;18.00;;;8.10;;
46363;SDS011;32071;49.036;9.344;2023-04-07T04:15:53;16.43;;;8.87;;
46363;SDS011;32071;49.036;9.344;2023-04-07T04:18:18;17.13;;;9.97;;
46363;SDS011;32071;49.036;9.344;2023-04-07T04:20:44;16.80;;;8.03;;
46363;SDS011;32071;49.036;9.344;2023-04-07T04:23:11;14.20;;;8.87;;
46363;SDS011;32071;49.036;9.344;2023-04-07T04:25:37;15.07;;;8.50;;
46363;SDS011;32071;49.036;9.344;2023-04-07T04:28:04;15.77;;;8.60;;
46363;SDS011;32071;49.036;9.344;2023-04-07T04:30:30;15.10;;;9.00;;
46363;SDS011;32071;49.036;9.344;2023-04-07T04:32:56;13.70;;;8.80;;
46363;SDS011;32071;49.036;9.344;2023-04-07T04:35:22;16.63;;;9.07;;
46363;SDS011;32071;49.036;9.344;2023-04-07T04:37:47;15.40;;;9.03;;
46363;SDS011;32071;49.036;9.344;2023-04-07T04:40:13;16.20;;;8.77;;
46363;SDS011;32071;49.036;9.344;2023-04-07T04:42:39;15.90;;;9.07;;
46363;SDS011;32071;49.036;9.344;2023-04-07T04:45:05;13.97;;;8.97;;
46363;SDS011;32071;49.036;9.344;2023-04-07T04:47:31;17.07;;;9.73;;
46363;SDS011;32071;49.036;9.344;2023-04-07T04:49:56;16.80;;;9.30;;
46363;SDS011;32071;49.036;9.344;2023-04-07T04:52:22;18.77;;;9.67;;
46363;SDS011;32071;49.036;9.344;2023-04-07T04:54:47;18.13;;;9.30;;
46363;SDS011;32071;49.036;9.344;2023-04-07T04:57:13;14.73;;;9.50;;
46363;SDS011;32071;49.036;9.344;2023-04-07T04:59:38;15.53;;;9.20;;
46363;SDS011;32071;49.036;9.344;2023-04-07T05:02:04;17.83;;;9.43;;
46363;SDS011;32071;49.036;9.344;2023-04-07T05:04:30;16.53;;;9.23;;
46363;SDS011;32071;49.036;9.344;2023-04-07T05:06:55;15.37;;;9.27;;
46363;SDS011;32071;49.036;9.344;2023-04-07T05:09:21;18.90;;;10.57;;
46363;SDS011;32071;49.036;9.344;2023-04-07T05:11:46;21.33;;;11.00;;
46363;SDS011;32071;49.036;9.344;2023-04-07T05:14:12;17.20;;;10.47;;
46363;SDS011;32071;49.036;9.344;2023-04-07T05:16:38;19.97;;;11.13;;
46363;SDS011;32071;49.036;9.344;2023-04-07T05:19:03;18.87;;;10.43;;
46363;SDS011;32071;49.036;9.344;2023-04-07T05:21:29;16.97;;;9.60;;
46363;SDS011;32071;49.036;9.344;2023-04-07T05:23:55;17.90;;;10.23;;
46363;SDS011;32071;49.036;9.344;2023-04-07T05:26:21;17.30;;;10.23;;
46363;SDS011;32071;49.036;9.344;2023-04-07T05:28:46;18.43;;;9.20;;
46363;SDS011;32071;49.036;9.344;2023-04-07T05:31:12;17.60;;;9.90;;
46363;SDS011;32071;49.036;9.344;2023-04-07T05:33:37;16.60;;;9.43;;
46363;SDS011;32071;49.036;9.344;2023-04-07T05:36:03;18.67;;;10.80;;
46363;SDS011;32071;49.036;9.344;2023-04-07T05:38:29;18.80;;;9.97;;
46363;SDS011;32071;49.036;9.344;2023-04-07T05:40:55;18.13;;;10.03;;
46363;SDS011;32071;49.036;9.344;2023-04-07T05:43:20;16.30;;;9.00;;
46363;SDS011;32071;49.036;9.344;2023-04-07T05:45:46;17.97;;;9.77;;
46363;SDS011;32071;49.036;9.344;2023-04-07T05:48:11;13.43;;;8.87;;
46363;SDS011;32071;49.036;9.344;2023-04-07T05:50:37;17.80;;;9.97;;
46363;SDS011;32071;49.036;9.344;2023-04-07T05:53:03;20.10;;;10.57;;
46363;SDS011;32071;49.036;9.344;2023-04-07T05:55:28;17.90;;;10.13;;
46363;SDS011;32071;49.036;9.344;2023-04-07T05:57:54;17.83;;;9.80;;
46363;SDS011;32071;49.036;9.344;2023-04-07T06:00:19;18.27;;;10.27;;
46363;SDS011;32071;49.036;9.344;2023-04-07T06:02:45;16.87;;;9.20;;
46363;SDS011;32071;49.036;9.344;2023-04-07T06:05:11;18.50;;;10.10;;
46363;SDS011;32071;49.036;9.344;2023-04-07T06:07:36;16.50;;;9.47;;
46363;SDS011;32071;49.036;9.344;2023-04-07T06:10:02;20.50;;;10.40;;
46363;SDS011;32071;49.036;9.344;2023-04-07T06:12:28;17.13;;;10.50;;
46363;SDS011;32071;49.036;9.344;2023-04-07T06:14:54;19.60;;;10.00;;
46363;SDS011;32071;49.036;9.344;2023-04-07T06:17:20;16.63;;;8.43;;
46363;SDS011;32071;49.036;9.344;2023-04-07T06:19:46;17.23;;;9.53;;
46363;SDS011;32071;49.036;9.344;2023-04-07T06:22:12;16.67;;;10.67;;
46363;SDS011;32071;49.036;9.344;2023-04-07T06:24:38;14.97;;;9.17;;
46363;SDS011;32071;49.036;9.344;2023-04-07T06:27:04;15.47;;;9.33;;
46363;SDS011;32071;49.036;9.344;2023-04-07T06:29:31;15.10;;;9.40;;
46363;SDS011;32071;49.036;9.344;2023-04-07T06:31:57;14.90;;;9.10;;
46363;SDS011;32071;49.036;9.344;2023-04-07T06:34:23;17.10;;;10.27;;
46363;SDS011;32071;49.036;9.344;2023-04-07T06:36:48;16.90;;;8.90;;
46363;SDS011;32071;49.036;9.344;2023-04-07T06:39:14;16.97;;;9.70;;
46363;SDS011;32071;49.036;9.344;2023-04-07T06:41:40;19.30;;;11.17;;
46363;SDS011;32071;49.036;9.344;2023-04-07T06:44:08;20.37;;;10.40;;
46363;SDS011;32071;49.036;9.344;2023-04-07T06:46:37;15.57;;;9.40;;
46363;SDS011;32071;49.036;9.344;2023-04-07T06:49:03;14.17;;;9.13;;
46363;SDS011;32071;49.036;9.344;2023-04-07T06:51:29;14.30;;;8.80;;
46363;SDS011;32071;49.036;9.344;2023-04-07T06:53:55;12.90;;;8.70;;
46363;SDS011;32071;49.036;9.344;2023-04-07T06:56:21;15.93;;;9.43;;
46363;SDS011;32071;49.036;9.344;2023-04-07T06:58:47;13.20;;;8.40;;
46363;SDS011;32071;49.036;9.344;2023-04-07T07:01:15;17.70;;;10.47;;
46363;SDS011;32071;49.036;9.344;2023-04-07T07:03:40;18.00;;;9.17;;
46363;SDS011;32071;49.036;9.344;2023-04-07T07:06:06;14.50;;;10.00;;
46363;SDS011;32071;49.036;9.344;2023-04-07T07:08:31;14.93;;;9.27;;
46363;SDS011;32071;49.036;9.344;2023-04-07T07:10:57;16.47;;;9.13;;
46363;SDS011;32071;49.036;9.344;2023-04-07T07:13:23;15.00;;;9.17;;
46363;SDS011;32071;49.036;9.344;2023-04-07T07:15:50;17.57;;;10.20;;
46363;SDS011;32071;49.036;9.344;2023-04-07T07:18:17;16.47;;;10.30;;
46363;SDS011;32071;49.036;9.344;2023-04-07T07:20:43;15.07;;;9.80;;
46363;SDS011;32071;49.036;9.344;2023-04-07T07:23:09;20.23;;;11.40;;
46363;SDS011;32071;49.036;9.344;2023-04-07T07:25:34;23.47;;;12.40;;
46363;SDS011;32071;49.036;9.344;2023-04-07T07:28:00;21.43;;;12.47;;
46363;SDS011;32071;49.036;9.344;2023-04-07T07:30:26;21.90;;;12.23;;
46363;SDS011;32071;49.036;9.344;2023-04-07T07:32:52;18.20;;;10.97;;
46363;SDS011;32071;49.036;9.344;2023-04-07T07:35:19;19.60;;;11.23;;
46363;SDS011;32071;49.036;9.344;2023-04-07T07:37:45;25.60;;;14.20;;
46363;SDS011;32071;49.036;9.344;2023-04-07T07:40:11;23.20;;;14.27;;
46363;SDS011;32071;49.036;9.344;2023-04-07T07:42:37;24.07;;;14.30;;
46363;SDS011;32071;49.036;9.344;2023-04-07T07:45:03;23.20;;;12.83;;
46363;SDS011;32071;49.036;9.344;2023-04-07T07:47:29;19.10;;;11.10;;
46363;SDS011;32071;49.036;9.344;2023-04-07T07:49:55;19.17;;;10.97;;
46363;SDS011;32071;49.036;9.344;2023-04-07T07:52:20;18.77;;;11.00;;
46363;SDS011;32071;49.036;9.344;2023-04-07T07:54:49;22.40;;;10.63;;
46363;SDS011;32071;49.036;9.344;2023-04-07T07:57:15;16.50;;;9.63;;
46363;SDS011;32071;49.036;9.344;2023-04-07T07:59:41;15.83;;;9.80;;
46363;SDS011;32071;49.036;9.344;2023-04-07T08:02:07;17.00;;;9.53;;
46363;SDS011;32071;49.036;9.344;2023-04-07T08:04:34;15.40;;;9.27;;
46363;SDS011;32071;49.036;9.344;2023-04-07T08:07:01;20.73;;;9.50;;
46363;SDS011;32071;49.036;9.344;2023-04-07T08:09:27;12.67;;;8.40;;
46363;SDS011;32071;49.036;9.344;2023-04-07T08:11:52;13.40;;;9.13;;
46363;SDS011;32071;49.036;9.344;2023-04-07T08:14:18;13.30;;;7.77;;
46363;SDS011;32071;49.036;9.344;2023-04-07T08:16:44;13.10;;;9.03;;
46363;SDS011;32071;49.036;9.344;2023-04-07T08:19:10;15.60;;;8.43;;
46363;SDS011;32071;49.036;9.344;2023-04-07T08:21:37;13.10;;;8.70;;
46363;SDS011;32071;49.036;9.344;2023-04-07T08:24:03;11.63;;;7.90;;
46363;SDS011;32071;49.036;9.344;2023-04-07T08:26:29;12.93;;;8.53;;
46363;SDS011;32071;49.036;9.344;2023-04-07T08:28:55;12.37;;;8.83;;
46363;SDS011;32071;49.036;9.344;2023-04-07T08:31:21;13.43;;;7.67;;
46363;SDS011;32071;49.036;9.344;2023-04-07T08:33:46;15.80;;;7.93;;
46363;SDS011;32071;49.036;9.344;2023-04-07T08:36:12;14.70;;;9.33;;
46363;SDS011;32071;49.036;9.344;2023-04-07T08:38:38;15.60;;;9.33;;
46363;SDS011;32071;49.036;9.344;2023-04-07T08:41:07;12.83;;;9.00;;
46363;SDS011;32071;49.036;9.344;2023-04-07T08:43:36;11.90;;;7.77;;
46363;SDS011;32071;49.036;9.344;2023-04-07T08:46:03;12.73;;;8.97;;
46363;SDS011;32071;49.036;9.344;2023-04-07T08:48:30;14.50;;;8.43;;
46363;SDS011;32071;49.036;9.344;2023-04-07T08:51:00;13.00;;;7.17;;
46363;SDS011;32071;49.036;9.344;2023-04-07T08:53:50;13.43;;;7.63;;
46363;SDS011;32071;49.036;9.344;2023-04-07T08:56:18;11.43;;;7.97;;
46363;SDS011;32071;49.036;9.344;2023-04-07T08:58:47;13.60;;;8.20;;
46363;SDS011;32071;49.036;9.344;2023-04-07T09:01:13;15.17;;;9.47;;
46363;SDS011;32071;49.036;9.344;2023-04-07T09:03:42;12.87;;;8.40;;
46363;SDS011;32071;49.036;9.344;2023-04-07T09:06:09;10.13;;;7.17;;
46363;SDS011;32071;49.036;9.344;2023-04-07T09:08:35;10.53;;;7.97;;
46363;SDS011;32071;49.036;9.344;2023-04-07T09:11:01;11.77;;;7.80;;
46363;SDS011;32071;49.036;9.344;2023-04-07T09:13:30;11.57;;;8.47;;
46363;SDS011;32071;49.036;9.344;2023-04-07T09:15:56;13.17;;;8.60;;
46363;SDS011;32071;49.036;9.344;2023-04-07T09:18:23;12.13;;;8.43;;
46363;SDS011;32071;49.036;9.344;2023-04-07T09:21:02;12.40;;;8.30;;
46363;SDS011;32071;49.036;9.344;2023-04-07T09:23:38;11.33;;;8.00;;
46363;SDS011;32071;49.036;9.344;2023-04-07T09:28:47;10.43;;;8.00;;
46363;SDS011;32071;49.036;9.344;2023-04-07T09:31:14;12.90;;;8.20;;
46363;SDS011;32071;49.036;9.344;2023-04-07T09:33:48;10.20;;;8.07;;
46363;SDS011;32071;49.036;9.344;2023-04-07T09:36:14;13.70;;;8.10;;
46363;SDS011;32071;49.036;9.344;2023-04-07T09:38:40;17.40;;;9.33;;
46363;SDS011;32071;49.036;9.344;2023-04-07T09:41:16;8.57;;;7.50;;
46363;SDS011;32071;49.036;9.344;2023-04-07T09:43:43;11.27;;;8.27;;
46363;SDS011;32071;49.036;9.344;2023-04-07T09:46:10;13.13;;;9.50;;
46363;SDS011;32071;49.036;9.344;2023-04-07T09:48:42;15.17;;;9.10;;
46363;SDS011;32071;49.036;9.344;2023-04-07T09:51:10;12.80;;;8.40;;
46363;SDS011;32071;49.036;9.344;2023-04-07T09:53:41;12.13;;;9.47;;
46363;SDS011;32071;49.036;9.344;2023-04-07T09:56:09;11.20;;;9.33;;
46363;SDS011;32071;49.036;9.344;2023-04-07T09:58:38;11.23;;;8.70;;
46363;SDS011;32071;49.036;9.344;2023-04-07T10:01:06;9.50;;;7.93;;
46363;SDS011;32071;49.036;9.344;2023-04-07T10:03:33;11.43;;;9.00;;
46363;SDS011;32071;49.036;9.344;2023-04-07T10:06:03;13.80;;;9.80;;
46363;SDS011;32071;49.036;9.344;2023-04-07T10:08:31;9.43;;;8.20;;
46363;SDS011;32071;49.036;9.344;2023-04-07T10:10:58;11.67;;;8.10;;
46363;SDS011;32071;49.036;9.344;2023-04-07T10:13:27;11.37;;;7.47;;
46363;SDS011;32071;49.036;9.344;2023-04-07T10:15:54;7.90;;;6.43;;
46363;SDS011;32071;49.036;9.344;2023-04-07T10:18:20;10.87;;;8.23;;
46363;SDS011;32071;49.036;9.344;2023-04-07T10:20:49;6.80;;;6.00;;
46363;SDS011;32071;49.036;9.344;2023-04-07T10:23:28;6.97;;;5.47;;
46363;SDS011;32071;49.036;9.344;2023-04-07T10:26:04;9.27;;;5.67;;
46363;SDS011;32071;49.036;9.344;2023-04-07T10:28:32;6.07;;;5.37;;
46363;SDS011;32071;49.036;9.344;2023-04-07T10:31:02;7.43;;;5.93;;
46363;SDS011;32071;49.036;9.344;2023-04-07T10:33:47;12.00;;;6.30;;
46363;SDS011;32071;49.036;9.344;2023-04-07T10:36:15;10.50;;;7.87;;
46363;SDS011;32071;49.036;9.344;2023-04-07T10:38:54;12.33;;;7.20;;
46363;SDS011;32071;49.036;9.344;2023-04-07T10:41:40;12.83;;;7.43;;
46363;SDS011;32071;49.036;9.344;2023-04-07T10:44:06;9.60;;;7.60;;
46363;SDS011;32071;49.036;9.344;2023-04-07T10:49:12;10.30;;;7.10;;
46363;SDS011;32071;49.036;9.344;2023-04-07T10:51:38;10.27;;;7.40;;
46363;SDS011;32071;49.036;9.344;2023-04-07T10:54:20;9.37;;;7.40;;
46363;SDS011;32071;49.036;9.344;2023-04-07T11:02:37;8.07;;;6.30;;
46363;SDS011;32071;49.036;9.344;2023-04-07T11:05:03;14.60;;;7.43;;
46363;SDS011;32071;49.036;9.344;2023-04-07T11:07:44;8.77;;;6.67;;
46363;SDS011;32071;49.036;9.344;2023-04-07T11:10:12;8.50;;;6.40;;
46363;SDS011;32071;49.036;9.344;2023-04-07T11:12:40;7.80;;;5.63;;
46363;SDS011;32071;49.036;9.344;2023-04-07T11:15:19;7.27;;;5.80;;
46363;SDS011;32071;49.036;9.344;2023-04-07T11:20:43;7.67;;;6.97;;
46363;SDS011;32071;49.036;9.344;2023-04-07T11:23:17;11.03;;;6.10;;
46363;SDS011;32071;49.036;9.344;2023-04-07T11:25:46;6.70;;;5.60;;
46363;SDS011;32071;49.036;9.344;2023-04-07T11:28:13;6.70;;;5.10;;
46363;SDS011;32071;49.036;9.344;2023-04-07T11:30:47;5.77;;;5.03;;
46363;SDS011;32071;49.036;9.344;2023-04-07T11:33:16;7.10;;;4.33;;
46363;SDS011;32071;49.036;9.344;2023-04-07T11:35:50;5.77;;;4.23;;
46363;SDS011;32071;49.036;9.344;2023-04-07T11:38:17;6.40;;;4.77;;
46363;SDS011;32071;49.036;9.344;2023-04-07T11:40:43;6.50;;;4.43;;
46363;SDS011;32071;49.036;9.344;2023-04-07T11:43:22;6.03;;;5.10;;
46363;SDS011;32071;49.036;9.344;2023-04-07T11:46:06;7.53;;;5.17;;
46363;SDS011;32071;49.036;9.344;2023-04-07T11:48:40;6.60;;;5.17;;
46363;SDS011;32071;49.036;9.344;2023-04-07T11:51:17;7.00;;;5.40;;
46363;SDS011;32071;49.036;9.344;2023-04-07T11:53:53;7.80;;;5.47;;
46363;SDS011;32071;49.036;9.344;2023-04-07T11:56:20;7.67;;;4.90;;
46363;SDS011;32071;49.036;9.344;2023-04-07T11:58:52;6.90;;;5.20;;
46363;SDS011;32071;49.036;9.344;2023-04-07T12:01:19;7.43;;;4.77;;
46363;SDS011;32071;49.036;9.344;2023-04-07T12:04:01;6.03;;;4.83;;
46363;SDS011;32071;49.036;9.344;2023-04-07T12:06:28;7.50;;;4.43;;
46363;SDS011;32071;49.036;9.344;2023-04-07T12:08:55;4.60;;;4.20;;
46363;SDS011;32071;49.036;9.344;2023-04-07T12:11:20;10.87;;;4.57;;
46363;SDS011;32071;49.036;9.344;2023-04-07T12:13:46;8.73;;;5.60;;
46363;SDS011;32071;49.036;9.344;2023-04-07T12:16:12;7.07;;;5.20;;
46363;SDS011;32071;49.036;9.344;2023-04-07T12:18:37;5.50;;;4.80;;
46363;SDS011;32071;49.036;9.344;2023-04-07T12:21:03;5.93;;;4.53;;
46363;SDS011;32071;49.036;9.344;2023-04-07T12:23:28;6.10;;;4.70;;
46363;SDS011;32071;49.036;9.344;2023-04-07T12:25:54;7.20;;;5.30;;
46363;SDS011;32071;49.036;9.344;2023-04-07T12:28:20;6.47;;;4.57;;
46363;SDS011;32071;49.036;9.344;2023-04-07T12:30:45;7.20;;;4.87;;
46363;SDS011;32071;49.036;9.344;2023-04-07T12:33:11;9.57;;;5.57;;
46363;SDS011;32071;49.036;9.344;2023-04-07T12:35:37;10.77;;;5.80;;
46363;SDS011;32071;49.036;9.344;2023-04-07T12:38:03;6.30;;;5.07;;
46363;SDS011;32071;49.036;9.344;2023-04-07T12:40:29;6.13;;;4.83;;
46363;SDS011;32071;49.036;9.344;2023-04-07T12:42:55;6.90;;;5.60;;
46363;SDS011;32071;49.036;9.344;2023-04-07T12:45:22;6.90;;;4.50;;
46363;SDS011;32071;49.036;9.344;2023-04-07T12:47:48;8.43;;;4.80;;
46363;SDS011;32071;49.036;9.344;2023-04-07T12:50:14;6.80;;;5.07;;
46363;SDS011;32071;49.036;9.344;2023-04-07T12:52:40;7.67;;;4.33;;
46363;SDS011;32071;49.036;9.344;2023-04-07T12:55:06;7.93;;;5.20;;
46363;SDS011;32071;49.036;9.344;2023-04-07T12:57:31;7.00;;;4.63;;
46363;SDS011;32071;49.036;9.344;2023-04-07T12:59:57;7.80;;;4.60;;
46363;SDS011;32071;49.036;9.344;2023-04-07T13:02:23;5.80;;;4.40;;
46363;SDS011;32071;49.036;9.344;2023-04-07T13:04:48;7.40;;;5.17;;
46363;SDS011;32071;49.036;9.344;2023-04-07T13:07:14;8.27;;;5.00;;
46363;SDS011;32071;49.036;9.344;2023-04-07T13:09:40;6.70;;;5.50;;
46363;SDS011;32071;49.036;9.344;2023-04-07T13:12:09;5.60;;;5.00;;
46363;SDS011;32071;49.036;9.344;2023-04-07T13:14:37;6.47;;;4.80;;
46363;SDS011;32071;49.036;9.344;2023-04-07T13:17:03;5.37;;;4.63;;
46363;SDS011;32071;49.036;9.344;2023-04-07T13:19:29;7.13;;;5.63;;
46363;SDS011;32071;49.036;9.344;2023-04-07T13:21:55;7.00;;;5.20;;
46363;SDS011;32071;49.036;9.344;2023-04-07T13:24:21;6.23;;;4.63;;
46363;SDS011;32071;49.036;9.344;2023-04-07T13:26:46;5.40;;;4.90;;
46363;SDS011;32071;49.036;9.344;2023-04-07T13:29:12;7.50;;;5.80;;
46363;SDS011;32071;49.036;9.344;2023-04-07T13:31:38;6.67;;;5.33;;
46363;SDS011;32071;49.036;9.344;2023-04-07T13:34:04;6.83;;;5.40;;
46363;SDS011;32071;49.036;9.344;2023-04-07T13:36:30;6.50;;;4.90;;
46363;SDS011;32071;49.036;9.344;2023-04-07T13:38:55;11.17;;;6.00;;
46363;SDS011;32071;49.036;9.344;2023-04-07T13:41:21;6.83;;;6.00;;
46363;SDS011;32071;49.036;9.344;2023-04-07T13:43:47;11.37;;;6.73;;
46363;SDS011;32071;49.036;9.344;2023-04-07T13:46:13;7.00;;;6.00;;
46363;SDS011;32071;49.036;9.344;2023-04-07T13:48:40;8.50;;;6.40;;
46363;SDS011;32071;49.036;9.344;2023-04-07T13:51:06;7.83;;;6.60;;
46363;SDS011;32071;49.036;9.344;2023-04-07T13:53:31;6.60;;;5.30;;
46363;SDS011;32071;49.036;9.344;2023-04-07T13:55:57;6.80;;;6.07;;
46363;SDS011;32071;49.036;9.344;2023-04-07T13:58:23;8.07;;;5.20;;
46363;SDS011;32071;49.036;9.344;2023-04-07T14:00:49;8.80;;;5.87;;
46363;SDS011;32071;49.036;9.344;2023-04-07T14:03:14;6.13;;;5.20;;
46363;SDS011;32071;49.036;9.344;2023-04-07T14:05:40;6.60;;;5.47;;
46363;SDS011;32071;49.036;9.344;2023-04-07T14:08:05;5.53;;;4.50;;
46363;SDS011;32071;49.036;9.344;2023-04-07T14:10:31;5.73;;;4.90;;
46363;SDS011;32071;49.036;9.344;2023-04-07T14:12:57;6.73;;;6.13;;
46363;SDS011;32071;49.036;9.344;2023-04-07T14:15:23;8.80;;;4.90;;
46363;SDS011;32071;49.036;9.344;2023-04-07T14:17:49;4.90;;;4.30;;
46363;SDS011;32071;49.036;9.344;2023-04-07T14:20:14;4.87;;;4.47;;
46363;SDS011;32071;49.036;9.344;2023-04-07T14:22:40;5.67;;;3.93;;
46363;SDS011;32071;49.036;9.344;2023-04-07T14:25:05;6.73;;;4.50;;
46363;SDS011;32071;49.036;9.344;2023-04-07T14:27:31;8.67;;;4.90;;
46363;SDS011;32071;49.036;9.344;2023-04-07T14:29:58;7.07;;;5.37;;
46363;SDS011;32071;49.036;9.344;2023-04-07T14:32:24;7.03;;;5.30;;
46363;SDS011;32071;49.036;9.344;2023-04-07T14:34:50;7.07;;;4.80;;
46363;SDS011;32071;49.036;9.344;2023-04-07T14:37:15;5.57;;;4.57;;
46363;SDS011;32071;49.036;9.344;2023-04-07T14:39:42;6.20;;;4.70;;
46363;SDS011;32071;49.036;9.344;2023-04-07T14:42:08;7.17;;;3.90;;
46363;SDS011;32071;49.036;9.344;2023-04-07T14:44:34;6.77;;;4.70;;
46363;SDS011;32071;49.036;9.344;2023-04-07T14:46:59;5.67;;;4.10;;
46363;SDS011;32071;49.036;9.344;2023-04-07T14:49:25;5.27;;;4.70;;
46363;SDS011;32071;49.036;9.344;2023-04-07T14:51:52;8.80;;;4.37;;
46363;SDS011;32071;49.036;9.344;2023-04-07T14:54:18;6.63;;;4.00;;
46363;SDS011;32071;49.036;9.344;2023-04-07T14:56:43;4.90;;;4.33;;
46363;SDS011;32071;49.036;9.344;2023-04-07T14:59:09;4.17;;;3.80;;